createdAt,value
2019-05-16T00:01:25.000Z,280.34
2019-05-16T00:02:58.000Z,280.34
2019-05-16T00:05:07.000Z,280.34
2019-05-16T00:06:36.000Z,280.34
2019-05-16T00:08:48.000Z,280.46
2019-05-16T00:10:16.000Z,280.46
2019-05-16T00:12:25.000Z,280.46
2019-05-16T00:13:59.000Z,280.52
2019-05-16T00:16:09.000Z,280.46
2019-05-16T00:17:41.000Z,280.52
2019-05-16T00:19:50.000Z,280.59
2019-05-16T00:21:21.000Z,280.4
2019-05-16T00:23:32.000Z,280.4
2019-05-16T00:25:05.000Z,280.4
2019-05-16T00:27:14.000Z,280.34
2019-05-16T00:28:43.000Z,280.34
2019-05-16T00:32:02.000Z,280.27
2019-05-16T00:33:24.000Z,280.27
2019-05-16T00:35:27.000Z,280.4
2019-05-16T00:36:49.000Z,280.4
2019-05-16T00:38:50.000Z,280.59
2019-05-16T00:40:12.000Z,280.59
2019-05-16T00:42:14.000Z,280.65
2019-05-16T00:43:38.000Z,280.65
2019-05-16T00:45:38.000Z,280.71
2019-05-16T00:47:00.000Z,280.71
2019-05-16T00:49:02.000Z,280.77
2019-05-16T00:50:25.000Z,280.71
2019-05-16T00:52:27.000Z,280.71
2019-05-16T00:53:49.000Z,280.77
2019-05-16T00:55:50.000Z,280.77
2019-05-16T00:57:12.000Z,280.77
2019-05-16T00:59:16.000Z,280.77
2019-05-16T01:00:39.000Z,280.84
2019-05-16T01:02:40.000Z,280.77
2019-05-16T01:04:02.000Z,280.71
2019-05-16T01:06:03.000Z,280.71
2019-05-16T01:07:41.000Z,280.71
2019-05-16T01:09:44.000Z,280.71
2019-05-16T01:11:09.000Z,280.71
2019-05-16T01:13:11.000Z,280.65
2019-05-16T01:14:33.000Z,280.65
2019-05-16T01:16:37.000Z,280.65
2019-05-16T01:17:59.000Z,280.65
2019-05-16T01:20:00.000Z,280.65
2019-05-16T01:21:23.000Z,280.71
2019-05-16T01:23:24.000Z,280.65
2019-05-16T01:24:48.000Z,280.65
2019-05-16T01:26:50.000Z,280.59
2019-05-16T01:28:12.000Z,280.59
2019-05-16T01:30:13.000Z,280.52
2019-05-16T01:31:35.000Z,280.52
2019-05-16T01:33:36.000Z,280.65
2019-05-16T01:34:58.000Z,280.65
2019-05-16T01:36:59.000Z,280.59
2019-05-16T01:38:22.000Z,280.52
2019-05-16T01:40:23.000Z,280.46
2019-05-16T01:41:48.000Z,280.46
2019-05-16T01:43:49.000Z,280.46
2019-05-16T01:45:12.000Z,280.34
2019-05-16T01:47:15.000Z,280.34
2019-05-16T01:48:38.000Z,280.34
2019-05-16T01:50:40.000Z,280.34
2019-05-16T01:52:03.000Z,280.4
2019-05-16T01:54:07.000Z,280.34
2019-05-16T01:55:29.000Z,280.27
2019-05-16T01:57:30.000Z,280.21
2019-05-16T01:58:52.000Z,280.21
2019-05-16T02:00:53.000Z,280.15
2019-05-16T02:02:32.000Z,280.15
2019-05-16T02:04:34.000Z,280.21
2019-05-16T02:05:59.000Z,280.27
2019-05-16T02:08:00.000Z,280.21
2019-05-16T02:09:22.000Z,280.15
2019-05-16T02:11:23.000Z,280.09
2019-05-16T02:12:48.000Z,280.09
2019-05-16T02:14:51.000Z,280.09
2019-05-16T02:16:13.000Z,280.02
2019-05-16T02:18:15.000Z,280.02
2019-05-16T02:19:39.000Z,280.15
2019-05-16T02:21:43.000Z,280.09
2019-05-16T02:23:06.000Z,280.21
2019-05-16T02:25:07.000Z,280.21
2019-05-16T02:26:31.000Z,280.15
2019-05-16T02:28:37.000Z,280.15
2019-05-16T02:30:03.000Z,280.15
2019-05-16T02:32:07.000Z,280.02
2019-05-16T02:33:35.000Z,280.02
2019-05-16T02:35:42.000Z,279.96
2019-05-16T02:37:07.000Z,279.96
2019-05-16T02:39:24.000Z,279.9
2019-05-16T02:40:49.000Z,279.84
2019-05-16T02:42:55.000Z,279.9
2019-05-16T02:44:19.000Z,279.9
2019-05-16T02:46:24.000Z,279.77
2019-05-16T02:47:48.000Z,279.77
2019-05-16T02:49:52.000Z,279.65
2019-05-16T02:51:18.000Z,279.77
2019-05-16T02:53:28.000Z,279.9
2019-05-16T02:54:53.000Z,279.9
2019-05-16T02:57:00.000Z,279.77
2019-05-16T02:58:25.000Z,279.77
2019-05-16T03:00:32.000Z,279.77
2019-05-16T03:01:57.000Z,279.77
2019-05-16T03:04:00.000Z,279.77
2019-05-16T03:05:27.000Z,279.71
2019-05-16T03:07:34.000Z,279.71
2019-05-16T03:09:10.000Z,279.71
2019-05-16T03:11:16.000Z,279.71
2019-05-16T03:12:44.000Z,279.71
2019-05-16T03:14:57.000Z,279.71
2019-05-16T03:16:31.000Z,279.65
2019-05-16T03:18:34.000Z,279.65
2019-05-16T03:19:57.000Z,279.65
2019-05-16T03:22:06.000Z,279.71
2019-05-16T03:23:32.000Z,279.71
2019-05-16T03:25:39.000Z,279.65
2019-05-16T03:27:07.000Z,279.46
2019-05-16T03:29:13.000Z,279.52
2019-05-16T03:30:43.000Z,279.59
2019-05-16T03:32:49.000Z,279.65
2019-05-16T03:34:18.000Z,279.65
2019-05-16T03:36:34.000Z,279.59
2019-05-16T03:38:04.000Z,279.52
2019-05-16T03:40:14.000Z,279.52
2019-05-16T03:41:37.000Z,279.65
2019-05-16T03:43:45.000Z,279.59
2019-05-16T03:45:12.000Z,279.65
2019-05-16T03:47:22.000Z,279.71
2019-05-16T03:48:48.000Z,279.77
2019-05-16T03:50:56.000Z,279.65
2019-05-16T03:52:30.000Z,279.65
2019-05-16T03:54:36.000Z,279.84
2019-05-16T03:56:08.000Z,279.71
2019-05-16T03:58:13.000Z,279.52
2019-05-16T03:59:36.000Z,279.59
2019-05-16T04:01:48.000Z,279.46
2019-05-16T04:03:20.000Z,279.46
2019-05-16T04:05:30.000Z,279.34
2019-05-16T04:07:00.000Z,279.4
2019-05-16T04:09:11.000Z,279.46
2019-05-16T04:10:39.000Z,279.46
2019-05-16T04:12:42.000Z,279.46
2019-05-16T04:14:10.000Z,279.46
2019-05-16T04:16:22.000Z,279.52
2019-05-16T04:17:51.000Z,279.77
2019-05-16T04:20:05.000Z,279.71
2019-05-16T04:21:42.000Z,279.65
2019-05-16T04:23:49.000Z,279.59
2019-05-16T04:25:18.000Z,279.52
2019-05-16T04:27:29.000Z,279.4
2019-05-16T04:29:02.000Z,279.4
2019-05-16T04:31:15.000Z,279.46
2019-05-16T04:32:46.000Z,279.52
2019-05-16T04:34:59.000Z,279.65
2019-05-16T04:36:28.000Z,279.84
2019-05-16T04:38:39.000Z,279.77
2019-05-16T04:40:07.000Z,279.71
2019-05-16T04:42:19.000Z,279.84
2019-05-16T04:43:43.000Z,279.9
2019-05-16T04:45:53.000Z,279.96
2019-05-16T04:47:22.000Z,280.02
2019-05-16T04:49:38.000Z,280.09
2019-05-16T04:51:09.000Z,280.15
2019-05-16T04:53:18.000Z,280.15
2019-05-16T04:54:48.000Z,280.15
2019-05-16T04:56:57.000Z,280.21
2019-05-16T04:58:25.000Z,280.27
2019-05-16T05:00:41.000Z,280.27
2019-05-16T05:02:10.000Z,280.4
2019-05-16T05:04:23.000Z,280.34
2019-05-16T05:05:50.000Z,280.4
2019-05-16T05:07:58.000Z,280.34
2019-05-16T05:09:29.000Z,280.34
2019-05-16T05:11:38.000Z,280.34
2019-05-16T05:13:07.000Z,280.4
2019-05-16T05:15:20.000Z,280.4
2019-05-16T05:16:49.000Z,280.4
2019-05-16T05:18:58.000Z,280.46
2019-05-16T05:20:31.000Z,280.52
2019-05-16T05:23:56.000Z,280.52
2019-05-16T05:25:20.000Z,280.59
2019-05-16T05:27:21.000Z,280.65
2019-05-16T05:28:43.000Z,280.65
2019-05-16T05:30:44.000Z,280.77
2019-05-16T05:32:06.000Z,280.77
2019-05-16T05:34:14.000Z,280.71
2019-05-16T05:35:37.000Z,280.77
2019-05-16T05:37:39.000Z,280.84
2019-05-16T05:39:01.000Z,280.77
2019-05-16T05:41:12.000Z,280.84
2019-05-16T05:42:35.000Z,280.84
2019-05-16T05:44:38.000Z,280.9
2019-05-16T05:46:00.000Z,280.84
2019-05-16T05:48:01.000Z,280.77
2019-05-16T05:49:23.000Z,280.77
2019-05-16T05:51:24.000Z,280.9
2019-05-16T05:52:46.000Z,280.96
2019-05-16T05:54:50.000Z,280.96
2019-05-16T05:56:12.000Z,280.96
2019-05-16T05:58:14.000Z,280.96
2019-05-16T05:59:37.000Z,280.9
2019-05-16T06:01:41.000Z,280.84
2019-05-16T06:03:03.000Z,280.96
2019-05-16T06:05:04.000Z,280.96
2019-05-16T06:06:26.000Z,280.96
2019-05-16T06:08:30.000Z,281.02
2019-05-16T06:09:52.000Z,281.09
2019-05-16T06:11:57.000Z,280.96
2019-05-16T06:13:21.000Z,280.9
2019-05-16T06:15:22.000Z,280.96
2019-05-16T06:16:45.000Z,281.02
2019-05-16T06:18:49.000Z,280.77
2019-05-16T06:20:12.000Z,280.84
2019-05-16T06:22:14.000Z,280.77
2019-05-16T06:23:38.000Z,280.9
2019-05-16T06:25:39.000Z,280.84
2019-05-16T06:27:01.000Z,280.9
2019-05-16T06:29:02.000Z,280.77
2019-05-16T06:30:26.000Z,281.02
2019-05-16T06:32:29.000Z,280.77
2019-05-16T06:33:51.000Z,280.9
2019-05-16T06:35:55.000Z,281.02
2019-05-16T06:37:19.000Z,281.09
2019-05-16T06:39:23.000Z,281.09
2019-05-16T06:41:01.000Z,281.21
2019-05-16T06:43:02.000Z,281.21
2019-05-16T06:44:26.000Z,281.21
2019-05-16T06:46:31.000Z,281.27
2019-05-16T06:48:19.000Z,281.4
2019-05-16T06:50:20.000Z,281.46
2019-05-16T06:51:43.000Z,281.34
2019-05-16T06:53:47.000Z,281.21
2019-05-16T06:55:11.000Z,281.02
2019-05-16T06:57:14.000Z,281.02
2019-05-16T06:58:37.000Z,280.9
2019-05-16T07:00:48.000Z,280.84
2019-05-16T07:02:14.000Z,280.96
2019-05-16T07:04:32.000Z,280.9
2019-05-16T07:05:56.000Z,280.96
2019-05-16T07:08:02.000Z,281.15
2019-05-16T07:09:25.000Z,281.02
2019-05-16T07:11:26.000Z,280.9
2019-05-16T07:12:55.000Z,281.02
2019-05-16T07:15:02.000Z,281.09
2019-05-16T07:16:26.000Z,281.02
2019-05-16T07:18:33.000Z,281.02
2019-05-16T07:19:57.000Z,281.15
2019-05-16T07:22:04.000Z,281.34
2019-05-16T07:23:33.000Z,281.27
2019-05-16T07:25:36.000Z,281.21
2019-05-16T07:27:03.000Z,281.09
2019-05-16T07:29:07.000Z,281.27
2019-05-16T07:30:33.000Z,281.4
2019-05-16T07:32:37.000Z,281.27
2019-05-16T07:34:03.000Z,281.21
2019-05-16T07:36:05.000Z,281.27
2019-05-16T07:37:30.000Z,281.27
2019-05-16T07:39:34.000Z,281.27
2019-05-16T07:41:05.000Z,281.46
2019-05-16T07:43:17.000Z,281.4
2019-05-16T07:44:45.000Z,281.27
2019-05-16T07:46:48.000Z,281.34
2019-05-16T07:48:15.000Z,281.4
2019-05-16T07:50:24.000Z,281.09
2019-05-16T07:51:54.000Z,281.4
2019-05-16T07:53:56.000Z,281.59
2019-05-16T07:55:19.000Z,281.46
2019-05-16T07:57:24.000Z,281.52
2019-05-16T07:58:47.000Z,281.46
2019-05-16T08:00:53.000Z,281.65
2019-05-16T08:02:39.000Z,281.84
2019-05-16T08:04:42.000Z,281.9
2019-05-16T08:06:05.000Z,281.9
2019-05-16T08:08:15.000Z,282.15
2019-05-16T08:09:50.000Z,282.21
2019-05-16T08:11:53.000Z,282.52
2019-05-16T08:13:17.000Z,282.46
2019-05-16T08:15:21.000Z,282.46
2019-05-16T08:16:46.000Z,282.46
2019-05-16T08:18:56.000Z,282.71
2019-05-16T08:20:25.000Z,282.71
2019-05-16T08:22:26.000Z,282.77
2019-05-16T08:24:01.000Z,282.96
2019-05-16T08:26:09.000Z,283.21
2019-05-16T08:27:34.000Z,283.09
2019-05-16T08:29:44.000Z,283.15
2019-05-16T08:31:14.000Z,283.21
2019-05-16T08:33:21.000Z,283.27
2019-05-16T08:34:51.000Z,283.15
2019-05-16T08:36:54.000Z,283.09
2019-05-16T08:38:23.000Z,283.21
2019-05-16T08:40:31.000Z,283.34
2019-05-16T08:44:16.000Z,283.46
2019-05-16T08:46:24.000Z,283.52
2019-05-16T08:47:52.000Z,283.65
2019-05-16T08:49:59.000Z,283.77
2019-05-16T08:51:24.000Z,283.77
2019-05-16T08:53:31.000Z,283.84
2019-05-16T08:54:56.000Z,283.77
2019-05-16T08:57:05.000Z,283.84
2019-05-16T09:00:44.000Z,284.09
2019-05-16T09:02:55.000Z,283.84
2019-05-16T09:04:28.000Z,283.65
2019-05-16T09:06:36.000Z,283.52
2019-05-16T09:08:14.000Z,283.71
2019-05-16T09:10:24.000Z,283.52
2019-05-16T09:12:44.000Z,283.59
2019-05-16T09:14:56.000Z,283.4
2019-05-16T09:18:27.000Z,283.71
2019-05-16T09:20:52.000Z,283.84
2019-05-16T09:22:27.000Z,283.9
2019-05-16T09:24:38.000Z,284.09
2019-05-16T09:26:06.000Z,284.09
2019-05-16T09:28:14.000Z,284.09
2019-05-16T09:29:45.000Z,284.09
2019-05-16T09:31:59.000Z,284.21
2019-05-16T09:33:44.000Z,284.34
2019-05-16T09:35:59.000Z,284.65
2019-05-16T09:37:27.000Z,284.84
2019-05-16T09:39:41.000Z,285.27
2019-05-16T09:41:05.000Z,285.27
2019-05-16T09:43:15.000Z,285.52
2019-05-16T09:44:47.000Z,285.52
2019-05-16T09:46:56.000Z,285.65
2019-05-16T09:48:26.000Z,285.65
2019-05-16T09:50:36.000Z,285.52
2019-05-16T09:52:07.000Z,285.71
2019-05-16T09:54:20.000Z,285.96
2019-05-16T09:55:49.000Z,285.9
2019-05-16T09:57:57.000Z,285.9
2019-05-16T09:59:27.000Z,285.59
2019-05-16T10:01:38.000Z,285.71
2019-05-16T10:03:07.000Z,285.59
2019-05-16T10:05:22.000Z,285.59
2019-05-16T10:06:54.000Z,285.59
2019-05-16T10:09:07.000Z,285.4
2019-05-16T10:10:35.000Z,285.4
2019-05-16T10:12:45.000Z,285.34
2019-05-16T10:14:13.000Z,285.4
2019-05-16T10:16:26.000Z,285.34
2019-05-16T10:17:55.000Z,285.34
2019-05-16T10:20:07.000Z,285.4
2019-05-16T10:21:39.000Z,285.59
2019-05-16T10:25:04.000Z,285.21
2019-05-16T10:26:26.000Z,285.46
2019-05-16T10:28:27.000Z,285.4
2019-05-16T10:29:49.000Z,285.4
2019-05-16T10:31:50.000Z,285.27
2019-05-16T10:33:14.000Z,285.52
2019-05-16T10:35:18.000Z,285.77
2019-05-16T10:36:40.000Z,285.9
2019-05-16T10:38:41.000Z,285.9
2019-05-16T10:40:04.000Z,285.96
2019-05-16T10:42:06.000Z,285.9
2019-05-16T10:43:48.000Z,286.02
2019-05-16T10:45:50.000Z,285.96
2019-05-16T10:47:13.000Z,285.9
2019-05-16T10:49:16.000Z,285.65
2019-05-16T10:50:58.000Z,285.59
2019-05-16T10:53:01.000Z,285.52
2019-05-16T10:54:49.000Z,285.4
2019-05-16T10:57:03.000Z,285.52
2019-05-16T10:58:29.000Z,285.52
2019-05-16T11:00:46.000Z,285.65
2019-05-16T11:02:34.000Z,285.9
2019-05-16T11:04:36.000Z,285.9
2019-05-16T11:06:19.000Z,285.46
2019-05-16T11:08:27.000Z,285.46
2019-05-16T11:09:49.000Z,285.4
2019-05-16T11:12:01.000Z,285.34
2019-05-16T11:13:28.000Z,285.65
2019-05-16T11:15:30.000Z,285.4
2019-05-16T11:16:52.000Z,285.09
2019-05-16T11:18:57.000Z,284.84
2019-05-16T11:20:35.000Z,285.15
2019-05-16T11:22:36.000Z,285.09
2019-05-16T11:23:58.000Z,285.02
2019-05-16T11:25:59.000Z,285.21
2019-05-16T11:27:21.000Z,284.96
2019-05-16T11:29:22.000Z,285.21
2019-05-16T11:30:45.000Z,284.59
2019-05-16T11:32:46.000Z,284.52
2019-05-16T11:34:09.000Z,284.52
2019-05-16T11:36:12.000Z,284.52
2019-05-16T11:37:37.000Z,284.59
2019-05-16T11:39:38.000Z,284.59
2019-05-16T11:41:00.000Z,284.77
2019-05-16T11:43:02.000Z,284.71
2019-05-16T11:44:38.000Z,284.71
2019-05-16T11:46:40.000Z,284.65
2019-05-16T11:48:03.000Z,284.59
2019-05-16T11:50:04.000Z,284.4
2019-05-16T11:51:27.000Z,284.4
2019-05-16T11:53:28.000Z,284.21
2019-05-16T11:54:52.000Z,284.21
2019-05-16T11:56:57.000Z,284.09
2019-05-16T11:58:20.000Z,283.9
2019-05-16T12:00:22.000Z,284.02
2019-05-16T12:01:52.000Z,283.9
2019-05-16T12:03:56.000Z,284.02
2019-05-16T12:05:19.000Z,284.02
2019-05-16T12:07:20.000Z,284.15
2019-05-16T12:08:45.000Z,284.15
2019-05-16T12:10:46.000Z,284.27
2019-05-16T12:12:10.000Z,284.27
2019-05-16T12:14:14.000Z,284.15
2019-05-16T12:15:38.000Z,284.15
2019-05-16T12:17:41.000Z,284.15
2019-05-16T12:19:03.000Z,284.21
2019-05-16T12:21:07.000Z,284.02
2019-05-16T12:22:33.000Z,283.77
2019-05-16T12:24:40.000Z,283.84
2019-05-16T12:26:03.000Z,283.9
2019-05-16T12:28:08.000Z,283.9
2019-05-16T12:29:31.000Z,283.9
2019-05-16T12:31:35.000Z,283.65
2019-05-16T12:32:59.000Z,283.71
2019-05-16T12:35:06.000Z,283.84
2019-05-16T12:36:30.000Z,283.77
2019-05-16T12:38:32.000Z,283.52
2019-05-16T12:40:04.000Z,283.46
2019-05-16T12:42:06.000Z,283.4
2019-05-16T12:43:30.000Z,283.52
2019-05-16T12:45:53.000Z,283.59
2019-05-16T12:47:18.000Z,283.52
2019-05-16T12:49:20.000Z,283.52
2019-05-16T12:50:47.000Z,283.52
2019-05-16T12:52:54.000Z,283.27
2019-05-16T12:54:21.000Z,283.46
2019-05-16T12:56:27.000Z,283.52
2019-05-16T12:57:54.000Z,283.46
2019-05-16T13:00:15.000Z,283.02
2019-05-16T13:01:40.000Z,283.21
2019-05-16T13:03:46.000Z,283.15
2019-05-16T13:05:09.000Z,283.09
2019-05-16T13:07:19.000Z,283.09
2019-05-16T13:08:47.000Z,283.02
2019-05-16T13:10:48.000Z,282.9
2019-05-16T13:12:12.000Z,282.71
2019-05-16T13:14:19.000Z,282.96
2019-05-16T13:15:46.000Z,282.9
2019-05-16T13:17:51.000Z,282.9
2019-05-16T13:19:17.000Z,282.71
2019-05-16T13:21:23.000Z,282.46
2019-05-16T13:22:57.000Z,282.46
2019-05-16T13:25:00.000Z,282.46
2019-05-16T13:26:27.000Z,282.52
2019-05-16T13:28:33.000Z,282.52
2019-05-16T13:29:59.000Z,282.59
2019-05-16T13:32:07.000Z,282.65
2019-05-16T13:33:39.000Z,282.65
2019-05-16T13:37:21.000Z,282.71
2019-05-16T13:39:23.000Z,282.84
2019-05-16T13:40:47.000Z,282.9
2019-05-16T13:42:48.000Z,282.65
2019-05-16T13:44:11.000Z,282.65
2019-05-16T13:46:22.000Z,282.59
2019-05-16T13:47:46.000Z,282.71
2019-05-16T13:49:48.000Z,282.71
2019-05-16T13:51:10.000Z,282.77
2019-05-16T13:53:17.000Z,282.77
2019-05-16T13:54:39.000Z,282.84
2019-05-16T13:56:40.000Z,282.9
2019-05-16T13:58:02.000Z,282.9
2019-05-16T14:00:03.000Z,282.77
2019-05-16T14:01:28.000Z,282.84
2019-05-16T14:03:30.000Z,282.71
2019-05-16T14:04:52.000Z,282.34
2019-05-16T14:06:52.000Z,281.9
2019-05-16T14:08:18.000Z,282.21
2019-05-16T14:10:19.000Z,282.52
2019-05-16T14:11:42.000Z,282.71
2019-05-16T14:13:45.000Z,282.71
2019-05-16T14:15:07.000Z,282.71
2019-05-16T14:17:10.000Z,282.59
2019-05-16T14:18:35.000Z,282.52
2019-05-16T14:20:37.000Z,282.46
2019-05-16T14:21:59.000Z,282.4
2019-05-16T14:24:00.000Z,282.46
2019-05-16T14:25:22.000Z,282.46
2019-05-16T14:27:23.000Z,282.52
2019-05-16T14:28:47.000Z,282.59
2019-05-16T14:30:48.000Z,282.65
2019-05-16T14:32:11.000Z,282.71
2019-05-16T14:34:14.000Z,282.65
2019-05-16T14:35:39.000Z,282.71
2019-05-16T14:37:40.000Z,282.77
2019-05-16T14:39:02.000Z,282.59
2019-05-16T14:41:03.000Z,282.65
2019-05-16T14:42:30.000Z,282.52
2019-05-16T14:44:31.000Z,282.65
2019-05-16T14:46:25.000Z,282.65
2019-05-16T14:48:27.000Z,282.59
2019-05-16T14:49:50.000Z,282.59
2019-05-16T14:51:51.000Z,282.46
2019-05-16T14:53:14.000Z,282.4
2019-05-16T14:55:18.000Z,282.34
2019-05-16T14:56:41.000Z,282.4
2019-05-16T14:58:45.000Z,282.4
2019-05-16T15:00:10.000Z,282.4
2019-05-16T15:02:13.000Z,282.4
2019-05-16T15:03:38.000Z,282.46
2019-05-16T15:05:39.000Z,282.27
2019-05-16T15:07:03.000Z,282.27
2019-05-16T15:09:06.000Z,282.46
2019-05-16T15:10:28.000Z,282.46
2019-05-16T15:12:29.000Z,282.09
2019-05-16T15:13:51.000Z,282.21
2019-05-16T15:15:52.000Z,282.21
2019-05-16T15:17:17.000Z,282.27
2019-05-16T15:19:21.000Z,282.21
2019-05-16T15:20:45.000Z,282.27
2019-05-16T15:22:47.000Z,282.34
2019-05-16T15:24:11.000Z,281.96
2019-05-16T15:26:13.000Z,281.96
2019-05-16T15:27:40.000Z,282.02
2019-05-16T15:29:41.000Z,282.09
2019-05-16T15:31:04.000Z,282.21
2019-05-16T15:33:09.000Z,282.21
2019-05-16T15:34:32.000Z,282.21
2019-05-16T15:36:37.000Z,282.21
2019-05-16T15:38:00.000Z,282.21
2019-05-16T15:40:06.000Z,282.34
2019-05-16T15:41:32.000Z,282.34
2019-05-16T15:43:35.000Z,282.34
2019-05-16T15:44:58.000Z,282.15
2019-05-16T15:47:02.000Z,282.27
2019-05-16T15:48:24.000Z,282.34
2019-05-16T15:50:29.000Z,282.21
2019-05-16T15:51:54.000Z,282.27
2019-05-16T15:53:59.000Z,282.21
2019-05-16T15:55:23.000Z,281.96
2019-05-16T15:57:30.000Z,282.02
2019-05-16T15:58:55.000Z,282.09
2019-05-16T16:00:57.000Z,282.09
2019-05-16T16:02:27.000Z,282.15
2019-05-16T16:04:30.000Z,281.96
2019-05-16T16:05:54.000Z,282.02
2019-05-16T16:07:59.000Z,282.02
2019-05-16T16:09:22.000Z,281.96
2019-05-16T16:11:30.000Z,281.9
2019-05-16T16:12:55.000Z,281.9
2019-05-16T16:14:58.000Z,281.71
2019-05-16T16:16:22.000Z,281.84
2019-05-16T16:18:33.000Z,281.77
2019-05-16T16:20:00.000Z,281.84
2019-05-16T16:22:06.000Z,281.84
2019-05-16T16:23:30.000Z,281.77
2019-05-16T16:25:34.000Z,281.96
2019-05-16T16:27:02.000Z,282.02
2019-05-16T16:29:03.000Z,281.96
2019-05-16T16:30:31.000Z,281.84
2019-05-16T16:32:40.000Z,281.71
2019-05-16T16:34:10.000Z,281.84
2019-05-16T16:36:12.000Z,281.96
2019-05-16T16:37:43.000Z,282.02
2019-05-16T16:39:51.000Z,282.09
2019-05-16T16:41:15.000Z,282.15
2019-05-16T16:43:21.000Z,281.96
2019-05-16T16:44:47.000Z,281.84
2019-05-16T16:46:53.000Z,281.71
2019-05-16T16:48:23.000Z,281.65
2019-05-16T16:50:30.000Z,281.77
2019-05-16T16:52:00.000Z,281.84
2019-05-16T16:54:09.000Z,281.84
2019-05-16T16:55:34.000Z,281.84
2019-05-16T16:57:40.000Z,281.77
2019-05-16T16:59:06.000Z,281.59
2019-05-16T17:01:11.000Z,281.52
2019-05-16T17:02:37.000Z,281.52
2019-05-16T17:04:45.000Z,281.65
2019-05-16T17:06:17.000Z,281.65
2019-05-16T17:08:27.000Z,281.59
2019-05-16T17:09:54.000Z,281.46
2019-05-16T17:12:02.000Z,281.34
2019-05-16T17:13:31.000Z,281.34
2019-05-16T17:15:42.000Z,281.59
2019-05-16T17:17:14.000Z,281.65
2019-05-16T17:19:26.000Z,281.84
2019-05-16T17:20:51.000Z,281.71
2019-05-16T17:23:05.000Z,281.65
2019-05-16T17:24:35.000Z,281.59
2019-05-16T17:26:44.000Z,281.52
2019-05-16T17:28:15.000Z,281.59
2019-05-16T17:32:18.000Z,281.65
2019-05-16T17:33:40.000Z,281.77
2019-05-16T17:35:41.000Z,281.77
2019-05-16T17:37:03.000Z,281.59
2019-05-16T17:39:08.000Z,281.65
2019-05-16T17:40:31.000Z,281.77
2019-05-16T17:42:32.000Z,281.84
2019-05-16T17:43:57.000Z,281.71
2019-05-16T17:45:58.000Z,281.71
2019-05-16T17:47:20.000Z,281.71
2019-05-16T17:49:21.000Z,281.52
2019-05-16T17:50:43.000Z,281.46
2019-05-16T17:52:45.000Z,281.65
2019-05-16T17:54:07.000Z,281.59
2019-05-16T17:56:09.000Z,281.65
2019-05-16T17:57:31.000Z,281.65
2019-05-16T17:59:32.000Z,281.65
2019-05-16T18:00:54.000Z,281.71
2019-05-16T18:02:59.000Z,281.77
2019-05-16T18:04:23.000Z,281.65
2019-05-16T18:06:26.000Z,281.59
2019-05-16T18:07:48.000Z,281.52
2019-05-16T18:09:49.000Z,281.52
2019-05-16T18:11:11.000Z,281.59
2019-05-16T18:13:12.000Z,281.59
2019-05-16T18:14:34.000Z,281.65
2019-05-16T18:16:36.000Z,281.46
2019-05-16T18:18:17.000Z,281.52
2019-05-16T18:20:19.000Z,281.65
2019-05-16T18:21:43.000Z,281.46
2019-05-16T18:23:46.000Z,281.65
2019-05-16T18:25:10.000Z,281.59
2019-05-16T18:27:10.000Z,281.52
2019-05-16T18:28:33.000Z,281.59
2019-05-16T18:30:36.000Z,281.46
2019-05-16T18:31:58.000Z,281.34
2019-05-16T18:33:59.000Z,281.4
2019-05-16T18:35:22.000Z,281.21
2019-05-16T18:37:28.000Z,281.15
2019-05-16T18:38:54.000Z,281.21
2019-05-16T18:40:57.000Z,281.15
2019-05-16T18:42:20.000Z,281.15
2019-05-16T18:44:22.000Z,281.02
2019-05-16T18:45:45.000Z,280.96
2019-05-16T18:47:46.000Z,280.9
2019-05-16T18:49:10.000Z,281.02
2019-05-16T18:51:14.000Z,280.96
2019-05-16T18:52:39.000Z,280.96
2019-05-16T18:54:40.000Z,281.02
2019-05-16T18:56:03.000Z,280.9
2019-05-16T18:58:07.000Z,280.96
2019-05-16T18:59:30.000Z,281.02
2019-05-16T19:01:33.000Z,281.09
2019-05-16T19:02:58.000Z,281.09
2019-05-16T19:05:01.000Z,280.96
2019-05-16T19:06:25.000Z,280.9
2019-05-16T19:08:27.000Z,280.9
2019-05-16T19:09:53.000Z,280.84
2019-05-16T19:11:56.000Z,280.84
2019-05-16T19:13:22.000Z,280.84
2019-05-16T19:15:30.000Z,280.77
2019-05-16T19:16:53.000Z,280.71
2019-05-16T19:18:58.000Z,280.77
2019-05-16T19:20:22.000Z,280.84
2019-05-16T19:22:27.000Z,280.84
2019-05-16T19:23:51.000Z,280.84
2019-05-16T19:25:57.000Z,280.9
2019-05-16T19:27:20.000Z,280.84
2019-05-16T19:29:23.000Z,281.02
2019-05-16T19:30:47.000Z,281.02
2019-05-16T19:32:51.000Z,280.9
2019-05-16T19:34:18.000Z,280.84
2019-05-16T19:36:22.000Z,280.71
2019-05-16T19:37:49.000Z,280.71
2019-05-16T19:39:54.000Z,280.84
2019-05-16T19:41:19.000Z,280.77
2019-05-16T19:43:23.000Z,280.84
2019-05-16T19:44:51.000Z,280.84
2019-05-16T19:46:54.000Z,280.71
2019-05-16T19:48:18.000Z,280.71
2019-05-16T19:50:22.000Z,280.71
2019-05-16T19:51:51.000Z,280.71
2019-05-16T19:53:52.000Z,280.77
2019-05-16T19:55:22.000Z,280.77
2019-05-16T19:57:27.000Z,280.77
2019-05-16T19:58:49.000Z,280.71
2019-05-16T20:00:59.000Z,280.71
2019-05-16T20:02:23.000Z,280.77
2019-05-16T20:04:26.000Z,280.84
2019-05-16T20:05:52.000Z,280.84
2019-05-16T20:09:29.000Z,280.9
2019-05-16T20:10:02.000Z,280.9
2019-05-16T20:11:30.000Z,280.96
2019-05-16T20:13:34.000Z,281.02
2019-05-16T20:15:02.000Z,281.09
2019-05-16T20:17:17.000Z,281.09
2019-05-16T20:18:45.000Z,281.09
2019-05-16T20:20:46.000Z,281.09
2019-05-16T20:22:12.000Z,281.09
2019-05-16T20:24:21.000Z,281.09
2019-05-16T20:25:45.000Z,281.02
2019-05-16T20:27:51.000Z,280.96
2019-05-16T20:29:16.000Z,280.96
2019-05-16T20:31:20.000Z,281.02
2019-05-16T20:32:46.000Z,280.96
2019-05-16T20:34:54.000Z,280.96
2019-05-16T20:36:21.000Z,280.9
2019-05-16T20:38:31.000Z,280.9
2019-05-16T20:39:57.000Z,280.96
2019-05-16T20:42:05.000Z,280.96
2019-05-16T20:43:30.000Z,280.9
2019-05-16T20:45:35.000Z,280.9
2019-05-16T20:47:05.000Z,280.84
2019-05-16T20:49:11.000Z,280.84
2019-05-16T20:50:35.000Z,280.84
2019-05-16T20:52:43.000Z,280.9
2019-05-16T20:54:16.000Z,280.9
2019-05-16T20:56:20.000Z,280.9
2019-05-16T20:57:47.000Z,280.96
2019-05-16T20:59:58.000Z,280.96
2019-05-16T21:01:24.000Z,280.9
2019-05-16T21:03:33.000Z,280.84
2019-05-16T21:05:05.000Z,280.9
2019-05-16T21:07:14.000Z,280.9
2019-05-16T21:08:43.000Z,280.9
2019-05-16T21:10:51.000Z,280.9
2019-05-16T21:12:21.000Z,280.84
2019-05-16T21:14:29.000Z,280.9
2019-05-16T21:16:00.000Z,280.9
2019-05-16T21:18:07.000Z,280.96
2019-05-16T21:19:36.000Z,280.96
2019-05-16T21:21:48.000Z,280.96
2019-05-16T21:23:16.000Z,280.96
2019-05-16T21:25:22.000Z,280.9
2019-05-16T21:26:52.000Z,280.9
2019-05-16T21:28:58.000Z,280.96
2019-05-16T21:30:28.000Z,280.77
2019-05-16T21:32:36.000Z,280.84
2019-05-16T21:34:06.000Z,280.9
2019-05-16T21:37:50.000Z,280.9
2019-05-16T21:39:52.000Z,280.9
2019-05-16T21:41:14.000Z,280.9
2019-05-16T21:43:15.000Z,280.9
2019-05-16T21:44:37.000Z,280.84
2019-05-16T21:46:38.000Z,280.9
2019-05-16T21:48:00.000Z,280.9
2019-05-16T21:50:01.000Z,280.9
2019-05-16T21:51:23.000Z,280.84
2019-05-16T21:53:25.000Z,280.9
2019-05-16T21:54:50.000Z,280.84
2019-05-16T21:56:50.000Z,280.77
2019-05-16T21:58:12.000Z,280.84
2019-05-16T22:00:13.000Z,280.77
2019-05-16T22:01:35.000Z,280.77
2019-05-16T22:03:37.000Z,280.77
2019-05-16T22:04:59.000Z,280.77
2019-05-16T22:07:00.000Z,280.71
2019-05-16T22:08:22.000Z,280.71
2019-05-16T22:10:25.000Z,280.71
2019-05-16T22:11:47.000Z,280.65
2019-05-16T22:13:49.000Z,280.65
2019-05-16T22:15:12.000Z,280.71
2019-05-16T22:17:12.000Z,280.71
2019-05-16T22:18:36.000Z,280.71
2019-05-16T22:20:37.000Z,280.65
2019-05-16T22:21:59.000Z,280.65
2019-05-16T22:24:01.000Z,280.65
2019-05-16T22:25:24.000Z,280.65